^^
Grace C. Lehan Memorial Weather Station Historical Data
Daily Summary for March 15, 2021 Units:  Both    English   Metric
Daily Weekly Monthly Yearly
  High: Low: Average:
Temperature: 83.1 °F /  28.4 °C 64 °F /  17.8 °C 72.5 °F /  22.5 °C
Dew Point: 66.9 °F /  19.4 °C 59.2 °F /  15.1 °C 63.1 °F /  17.3 °C
Humidity: 96% 48.5% 74%
Wind Speed: 7.5mph /  12.1km/h - 0.7mph /  1.1km/h
Wind Gust: 19mph /  30.6km/h - -
Wind- - West
Pressure: 29.75 in /  1007.3 hPa 29.65 in /  1003.9 hPa -
Precipitation: 0.00 in /  0 mm    
 
 
Tabular Data for March 15, 2021
Time Temperature Dew Point Pressure Wind Wind Speed Wind Gust Humidity Rainfall Rate (Hourly) solar
00:09 64.9 °F /  18.3 °C 63.4 °F /  17.4 °C 29.75in /  1007.3hPa Calm     95% 0.00in /  0mm 0 W/m2
00:14 64.8 °F /  18.2 °C 63.3 °F /  17.4 °C 29.75in /  1007.3hPa Calm     95% 0.00in /  0mm 0 W/m2
00:19 64.7 °F /  18.2 °C 63.3 °F /  17.4 °C 29.75in /  1007.3hPa Calm     95% 0.00in /  0mm 0 W/m2
00:24 64.7 °F /  18.2 °C 63.2 °F /  17.3 °C 29.74in /  1007hPa Calm     95% 0.00in /  0mm 0 W/m2
00:25 64.7 °F /  18.2 °C 63.2 °F /  17.3 °C 29.74in /  1007hPa Calm     95% 0.00in /  0mm 0 W/m2
01:00 64.8 °F /  18.2 °C 63.3 °F /  17.4 °C 29.75in /  1007.3hPa Calm     95% 0.00in /  0mm 0 W/m2
01:30 64.9 °F /  18.3 °C 63.7 °F /  17.6 °C 29.73in /  1006.7hPa Calm     96% 0.00in /  0mm 0 W/m2
02:00 64.9 °F /  18.3 °C 63.7 °F /  17.6 °C 29.74in /  1007hPa Calm     96% 0.00in /  0mm 0 W/m2
02:30 64.6 °F /  18.1 °C 63.1 °F /  17.3 °C 29.74in /  1007hPa Calm     95% 0.00in /  0mm 0 W/m2
03:00 64.7 °F /  18.2 °C 63.5 °F /  17.5 °C 29.72in /  1006.3hPa Calm     96% 0.00in /  0mm 0 W/m2
03:30 64.7 °F /  18.2 °C 63.5 °F /  17.5 °C 29.72in /  1006.3hPa Calm     96% 0.00in /  0mm 0 W/m2
04:04 64.7 °F /  18.2 °C 63.5 °F /  17.5 °C 29.73in /  1006.7hPa Calm     96% 0.00in /  0mm 0 W/m2
04:09 64.7 °F /  18.2 °C 63.5 °F /  17.5 °C 29.73in /  1006.7hPa Calm     96% 0.00in /  0mm 0 W/m2
04:14 64.7 °F /  18.2 °C 63.6 °F /  17.6 °C 29.73in /  1006.7hPa Calm     96% 0.00in /  0mm 0 W/m2
04:19 64.7 °F /  18.2 °C 63.6 °F /  17.6 °C 29.73in /  1006.7hPa Calm     96% 0.00in /  0mm 0 W/m2
04:24 64.7 °F /  18.2 °C 63.5 °F /  17.5 °C 29.73in /  1006.7hPa Calm     96% 0.00in /  0mm 0 W/m2
04:29 64.7 °F /  18.2 °C 63.5 °F /  17.5 °C 29.73in /  1006.7hPa Calm     96% 0.00in /  0mm 0 W/m2
04:34 64.6 °F /  18.1 °C 63.4 °F /  17.4 °C 29.73in /  1006.7hPa Calm     96% 0.00in /  0mm 0 W/m2
04:39 64.4 °F /  18 °C 63.2 °F /  17.3 °C 29.73in /  1006.7hPa Calm     96% 0.00in /  0mm 0 W/m2
04:44 64.2 °F /  17.9 °C 62.9 °F /  17.2 °C 29.72in /  1006.3hPa Calm     95.6% 0.00in /  0mm 0 W/m2
04:49 64.1 °F /  17.8 °C 62.6 °F /  17 °C 29.72in /  1006.3hPa Calm     95% 0.00in /  0mm 0 W/m2
04:54 64.1 °F /  17.8 °C 62.6 °F /  17 °C 29.72in /  1006.3hPa Calm     95% 0.00in /  0mm 0 W/m2
04:59 64.1 °F /  17.8 °C 62.9 °F /  17.2 °C 29.72in /  1006.3hPa Calm     95.8% 0.00in /  0mm 0 W/m2
05:04 64.1 °F /  17.8 °C 62.9 °F /  17.2 °C 29.71in /  1006hPa Calm     96% 0.00in /  0mm 0 W/m2
05:09 64.1 °F /  17.8 °C 62.9 °F /  17.2 °C 29.71in /  1006hPa Calm     96% 0.00in /  0mm 0 W/m2
05:14 64.1 °F /  17.8 °C 62.9 °F /  17.2 °C 29.72in /  1006.3hPa Calm     96% 0.00in /  0mm 0 W/m2
05:19 64 °F /  17.8 °C 62.9 °F /  17.2 °C 29.72in /  1006.3hPa Calm     96% 0.00in /  0mm 0 W/m2
05:24 64 °F /  17.8 °C 62.8 °F /  17.1 °C 29.72in /  1006.3hPa Calm     96% 0.00in /  0mm 0 W/m2
05:29 64 °F /  17.8 °C 62.9 °F /  17.2 °C 29.73in /  1006.7hPa Calm     96% 0.00in /  0mm 0 W/m2
05:34 64.1 °F /  17.8 °C 62.9 °F /  17.2 °C 29.73in /  1006.7hPa Calm     96% 0.00in /  0mm 0 W/m2
05:39 64.1 °F /  17.8 °C 62.9 °F /  17.2 °C 29.73in /  1006.7hPa Calm     96% 0.00in /  0mm 0 W/m2
05:44 64.2 °F /  17.9 °C 63 °F /  17.2 °C 29.73in /  1006.7hPa Calm     96% 0.00in /  0mm 7 W/m2
05:49 64.2 °F /  17.9 °C 63 °F /  17.2 °C 29.73in /  1006.7hPa Calm     96% 0.00in /  0mm 7 W/m2
05:54 64.3 °F /  17.9 °C 63.1 °F /  17.3 °C 29.73in /  1006.7hPa Calm     96% 0.00in /  0mm 9 W/m2
05:58 64.3 °F /  17.9 °C 63.1 °F /  17.3 °C 29.73in /  1006.7hPa Calm     96% 0.00in /  0mm 9 W/m2
06:00 64.3 °F /  17.9 °C 63.1 °F /  17.3 °C 29.73in /  1006.7hPa Calm     96% 0.00in /  0mm 4 W/m2
06:30 64.4 °F /  18 °C 63.2 °F /  17.3 °C 29.72in /  1006.3hPa Calm     96% 0.00in /  0mm 18 W/m2
07:00 64.4 °F /  18 °C 63.2 °F /  17.3 °C 29.72in /  1006.3hPa Calm   1mph /  1.6km/h 96% 0.00in /  0mm 23 W/m2
07:30 64.9 °F /  18.3 °C 63.7 °F /  17.6 °C 29.72in /  1006.3hPa Calm     96% 0.00in /  0mm 35 W/m2
08:04 65.9 °F /  18.8 °C 64.7 °F /  18.2 °C 29.71in /  1006hPa Calm     96% 0.00in /  0mm 225 W/m2
08:09 65.9 °F /  18.8 °C 64.8 °F /  18.2 °C 29.72in /  1006.3hPa West 1.9mph /  3.1km/h 6mph /  9.7km/h 96% 0.00in /  0mm 267 W/m2
08:14 65.9 °F /  18.8 °C 64.6 °F /  18.1 °C 29.72in /  1006.3hPa West 0.5mph /  0.8km/h 6mph /  9.7km/h 95.5% 0.00in /  0mm 214 W/m2
08:19 66.1 °F /  18.9 °C 64.5 °F /  18.1 °C 29.72in /  1006.3hPa West 0.9mph /  1.4km/h 6mph /  9.7km/h 94.6% 0.00in /  0mm 109 W/m2
08:24 66.2 °F /  19 °C 64.1 °F /  17.8 °C 29.72in /  1006.3hPa Calm   6mph /  9.7km/h 93.2% 0.00in /  0mm 120 W/m2
08:29 66.6 °F /  19.2 °C 64.5 °F /  18.1 °C 29.72in /  1006.3hPa Calm   6mph /  9.7km/h 93% 0.00in /  0mm 183 W/m2
08:34 66.9 °F /  19.4 °C 64.6 °F /  18.1 °C 29.71in /  1006hPa Calm   6mph /  9.7km/h 92.4% 0.00in /  0mm 221 W/m2
08:39 67.2 °F /  19.6 °C 64.8 °F /  18.2 °C 29.71in /  1006hPa Calm     91.9% 0.00in /  0mm 248 W/m2
08:44 67.5 °F /  19.7 °C 64.6 °F /  18.1 °C 29.71in /  1006hPa WNW 0.4mph /  0.6km/h 4mph /  6.4km/h 90.4% 0.00in /  0mm 214 W/m2
08:49 67.7 °F /  19.8 °C 64.2 °F /  17.9 °C 29.71in /  1006hPa Calm   4mph /  6.4km/h 88.4% 0.00in /  0mm 128 W/m2
08:54 67.8 °F /  19.9 °C 63.8 °F /  17.7 °C 29.71in /  1006hPa Calm   4mph /  6.4km/h 87% 0.00in /  0mm 162 W/m2
08:59 67.9 °F /  19.9 °C 63.7 °F /  17.6 °C 29.71in /  1006hPa Calm   4mph /  6.4km/h 86.5% 0.00in /  0mm 179 W/m2
09:04 68.1 °F /  20.1 °C 64 °F /  17.8 °C 29.71in /  1006hPa Calm   4mph /  6.4km/h 86.8% 0.00in /  0mm 179 W/m2
09:09 68.4 °F /  20.2 °C 64.2 °F /  17.9 °C 29.71in /  1006hPa Calm   1mph /  1.6km/h 86.4% 0.00in /  0mm 336 W/m2
09:14 68.8 °F /  20.4 °C 64.4 °F /  18 °C 29.71in /  1006hPa Calm   1mph /  1.6km/h 85.8% 0.00in /  0mm 294 W/m2
09:19 69.1 °F /  20.6 °C 64.1 °F /  17.8 °C 29.71in /  1006hPa WNW 0.3mph /  0.5km/h 2mph /  3.2km/h 84.1% 0.00in /  0mm 265 W/m2
09:24 69.5 °F /  20.8 °C 64.7 °F /  18.2 °C 29.71in /  1006hPa WNW 0.2mph /  0.3km/h 2mph /  3.2km/h 84.5% 0.00in /  0mm 615 W/m2
09:29 70.2 °F /  21.2 °C 65.3 °F /  18.5 °C 29.71in /  1006hPa Calm   2mph /  3.2km/h 84.5% 0.00in /  0mm 615 W/m2
09:34 70.8 °F /  21.6 °C 65.4 °F /  18.6 °C 29.71in /  1006hPa Calm   2mph /  3.2km/h 82.8% 0.00in /  0mm 383 W/m2
09:39 71.4 °F /  21.9 °C 65.7 °F /  18.7 °C 29.71in /  1006hPa WNW 1.8mph /  2.9km/h 7mph /  11.3km/h 82.2% 0.00in /  0mm 357 W/m2
09:44 71.6 °F /  22 °C 65.6 °F /  18.7 °C 29.71in /  1006hPa WNW 0.5mph /  0.8km/h 7mph /  11.3km/h 81.3% 0.00in /  0mm 306 W/m2
09:49 71.8 °F /  22.1 °C 65.7 °F /  18.7 °C 29.71in /  1006hPa Calm   7mph /  11.3km/h 81.2% 0.00in /  0mm 258 W/m2
09:54 72.2 °F /  22.3 °C 66.2 °F /  19 °C 29.71in /  1006hPa Calm   7mph /  11.3km/h 81.3% 0.00in /  0mm 359 W/m2
09:59 72.7 °F /  22.6 °C 66.7 °F /  19.3 °C 29.71in /  1006hPa Calm   7mph /  11.3km/h 81.3% 0.00in /  0mm 290 W/m2
10:04 73 °F /  22.8 °C 66 °F /  18.9 °C 29.71in /  1006hPa WNW 0.7mph /  1.1km/h 7mph /  11.3km/h 78.8% 0.00in /  0mm 218 W/m2
10:09 73 °F /  22.8 °C 65.9 °F /  18.8 °C 29.71in /  1006hPa WNW 0.1mph /  0.2km/h 4mph /  6.4km/h 78.3% 0.00in /  0mm 926 W/m2
10:14 73.4 °F /  23 °C 66.8 °F /  19.3 °C 29.71in /  1006hPa WNW 0.4mph /  0.6km/h 4mph /  6.4km/h 79.9% 0.00in /  0mm 972 W/m2
10:19 73.8 °F /  23.2 °C 66.1 °F /  18.9 °C 29.71in /  1006hPa WNW 1.5mph /  2.4km/h 6mph /  9.7km/h 76.9% 0.00in /  0mm 274 W/m2
10:24 73.8 °F /  23.2 °C 65.4 °F /  18.6 °C 29.71in /  1006hPa WNW 0.6mph /  1km/h 6mph /  9.7km/h 75.2% 0.00in /  0mm 348 W/m2
10:29 73.7 °F /  23.2 °C 65.7 °F /  18.7 °C 29.71in /  1006hPa WNW 1.1mph /  1.8km/h 6mph /  9.7km/h 76% 0.00in /  0mm 411 W/m2
10:34 73.6 °F /  23.1 °C 65.5 °F /  18.6 °C 29.71in /  1006hPa WNW 0.1mph /  0.2km/h 6mph /  9.7km/h 75.7% 0.00in /  0mm 578 W/m2
10:39 73.7 °F /  23.2 °C 65.8 °F /  18.8 °C 29.71in /  1006hPa Calm   2mph /  3.2km/h 76.5% 0.00in /  0mm 578 W/m2
10:44 73.9 °F /  23.3 °C 66.1 °F /  18.9 °C 29.71in /  1006hPa WNW 0.3mph /  0.5km/h 3mph /  4.8km/h 76.7% 0.00in /  0mm 425 W/m2
10:49 74.1 °F /  23.4 °C 66.2 °F /  19 °C 29.71in /  1006hPa WNW 0.6mph /  1km/h 4mph /  6.4km/h 76.4% 0.00in /  0mm 499 W/m2
10:54 74.2 °F /  23.4 °C 66.2 °F /  19 °C 29.71in /  1006hPa WNW 0.1mph /  0.2km/h 4mph /  6.4km/h 76% 0.00in /  0mm 638 W/m2
10:59 74.3 °F /  23.5 °C 65.8 °F /  18.8 °C 29.71in /  1006hPa Calm   4mph /  6.4km/h 74.9% 0.00in /  0mm 357 W/m2
11:04 74.4 °F /  23.6 °C 66.8 °F /  19.3 °C 29.71in /  1006hPa WNW 0.1mph /  0.2km/h 4mph /  6.4km/h 77.3% 0.00in /  0mm 874 W/m2
11:09 74.6 °F /  23.7 °C 66.6 °F /  19.2 °C 29.71in /  1006hPa WNW 0.3mph /  0.5km/h 3mph /  4.8km/h 76.2% 0.00in /  0mm 1034 W/m2
11:14 75 °F /  23.9 °C 66.9 °F /  19.4 °C 29.71in /  1006hPa WNW 0.1mph /  0.2km/h 3mph /  4.8km/h 76.1% 0.00in /  0mm 1034 W/m2
11:19 75.2 °F /  24 °C 65.6 °F /  18.7 °C 29.71in /  1006hPa Calm   3mph /  4.8km/h 72.2% 0.00in /  0mm 1092 W/m2
11:24 75.3 °F /  24.1 °C 66.3 °F /  19.1 °C 29.70in /  1005.6hPa WNW 1.4mph /  2.3km/h 6mph /  9.7km/h 73.6% 0.00in /  0mm 1034 W/m2
11:29 75.6 °F /  24.2 °C 65.9 °F /  18.8 °C 29.70in /  1005.6hPa WNW 0.1mph /  0.2km/h 6mph /  9.7km/h 72% 0.00in /  0mm 673 W/m2
11:34 75.6 °F /  24.2 °C 65.9 °F /  18.8 °C 29.70in /  1005.6hPa Calm   6mph /  9.7km/h 71.8% 0.00in /  0mm 673 W/m2
11:39 75.5 °F /  24.2 °C 65.5 °F /  18.6 °C 29.70in /  1005.6hPa WNW 0.1mph /  0.2km/h 2mph /  3.2km/h 71% 0.00in /  0mm 274 W/m2
11:44 75.4 °F /  24.1 °C 65.7 °F /  18.7 °C 29.70in /  1005.6hPa WNW 0.5mph /  0.8km/h 5mph /  8km/h 71.9% 0.00in /  0mm 274 W/m2
11:49 75.4 °F /  24.1 °C 65.2 °F /  18.4 °C 29.70in /  1005.6hPa WNW 0.2mph /  0.3km/h 5mph /  8km/h 70.8% 0.00in /  0mm 1046 W/m2
11:54 75.5 °F /  24.2 °C 65.9 °F /  18.8 °C 29.71in /  1006hPa Calm   5mph /  8km/h 72.2% 0.00in /  0mm 1171 W/m2
11:59 75.9 °F /  24.4 °C 66.4 °F /  19.1 °C 29.71in /  1006hPa Calm   5mph /  8km/h 72.3% 0.00in /  0mm 666 W/m2
12:04 76.5 °F /  24.7 °C 65.2 °F /  18.4 °C 29.70in /  1005.6hPa Calm     68% 0.00in /  0mm 454 W/m2
12:09 76.7 °F /  24.8 °C 65.8 °F /  18.8 °C 29.70in /  1005.6hPa WNW 0.1mph /  0.2km/h 2mph /  3.2km/h 69.1% 0.00in /  0mm 1102 W/m2
12:14 76.9 °F /  24.9 °C 63.8 °F /  17.7 °C 29.70in /  1005.6hPa Calm   2mph /  3.2km/h 64% 0.00in /  0mm 1125 W/m2
12:19 77 °F /  25 °C 64 °F /  17.8 °C 29.70in /  1005.6hPa WNW 0.1mph /  0.2km/h 2mph /  3.2km/h 64.4% 0.00in /  0mm 1032 W/m2
12:24 77.3 °F /  25.2 °C 64.3 °F /  17.9 °C 29.70in /  1005.6hPa WNW 1.1mph /  1.8km/h 4mph /  6.4km/h 64.3% 0.00in /  0mm 1055 W/m2
12:29 77.8 °F /  25.4 °C 64.2 °F /  17.9 °C 29.70in /  1005.6hPa WNW 0.1mph /  0.2km/h 4mph /  6.4km/h 63% 0.00in /  0mm 1055 W/m2
12:34 78 °F /  25.6 °C 64.3 °F /  17.9 °C 29.70in /  1005.6hPa Calm   4mph /  6.4km/h 62.7% 0.00in /  0mm 585 W/m2
12:39 78.1 °F /  25.6 °C 64.3 °F /  17.9 °C 29.70in /  1005.6hPa Calm     62.6% 0.00in /  0mm 1062 W/m2
12:44 78.3 °F /  25.7 °C 64.1 °F /  17.8 °C 29.70in /  1005.6hPa WNW 0.8mph /  1.3km/h 5mph /  8km/h 61.8% 0.00in /  0mm 1025 W/m2
12:49 78.5 °F /  25.8 °C 64.3 °F /  17.9 °C 29.70in /  1005.6hPa Calm   5mph /  8km/h 61.8% 0.00in /  0mm 1007 W/m2
12:54 78.7 °F /  25.9 °C 63.9 °F /  17.7 °C 29.70in /  1005.6hPa Calm   5mph /  8km/h 60.6% 0.00in /  0mm 1063 W/m2
12:59 78.6 °F /  25.9 °C 63.4 °F /  17.4 °C 29.69in /  1005.3hPa Calm   5mph /  8km/h 59.6% 0.00in /  0mm 1065 W/m2
13:04 78.4 °F /  25.8 °C 64.2 °F /  17.9 °C 29.69in /  1005.3hPa Calm   5mph /  8km/h 61.9% 0.00in /  0mm 1065 W/m2
13:09 78.5 °F /  25.8 °C 65.4 °F /  18.6 °C 29.69in /  1005.3hPa WNW 0.6mph /  1km/h 5mph /  8km/h 64% 0.00in /  0mm 998 W/m2
13:14 78.7 °F /  25.9 °C 64.5 °F /  18.1 °C 29.69in /  1005.3hPa West 0.8mph /  1.3km/h 7mph /  11.3km/h 61.7% 0.00in /  0mm 197 W/m2
13:19 78.5 °F /  25.8 °C 64.1 °F /  17.8 °C 29.69in /  1005.3hPa Calm   7mph /  11.3km/h 61.4% 0.00in /  0mm 1146 W/m2
13:24 78.5 °F /  25.8 °C 64.8 °F /  18.2 °C 29.69in /  1005.3hPa Calm   7mph /  11.3km/h 62.9% 0.00in /  0mm 1146 W/m2
13:29 79 °F /  26.1 °C 65.9 °F /  18.8 °C 29.68in /  1005hPa Calm   7mph /  11.3km/h 64.2% 0.00in /  0mm 1100 W/m2
13:34 79.6 °F /  26.4 °C 65.6 °F /  18.7 °C 29.69in /  1005.3hPa SW 1.1mph /  1.8km/h 7mph /  11.3km/h 62.3% 0.00in /  0mm 1099 W/m2
13:39 80 °F /  26.7 °C 65.2 °F /  18.4 °C 29.68in /  1005hPa WSW 0.4mph /  0.6km/h 6mph /  9.7km/h 60.7% 0.00in /  0mm 1099 W/m2
13:44 80.4 °F /  26.9 °C 65.9 °F /  18.8 °C 29.68in /  1005hPa Calm   6mph /  9.7km/h 61.4% 0.00in /  0mm 1062 W/m2
13:49 80.6 °F /  27 °C 65.4 °F /  18.6 °C 29.68in /  1005hPa WSW 0.2mph /  0.3km/h 6mph /  9.7km/h 59.8% 0.00in /  0mm 225 W/m2
13:54 80.5 °F /  26.9 °C 65 °F /  18.3 °C 29.68in /  1005hPa Calm   6mph /  9.7km/h 59.2% 0.00in /  0mm 188 W/m2
13:59 80.1 °F /  26.7 °C 64.6 °F /  18.1 °C 29.68in /  1005hPa WSW 0.1mph /  0.2km/h 6mph /  9.7km/h 59.3% 0.00in /  0mm 1130 W/m2
14:04 79.9 °F /  26.6 °C 64.8 °F /  18.2 °C 29.68in /  1005hPa WSW 0.2mph /  0.3km/h 6mph /  9.7km/h 60.1% 0.00in /  0mm 1130 W/m2
14:09 79.8 °F /  26.6 °C 64.3 °F /  17.9 °C 29.68in /  1005hPa WSW 0.2mph /  0.3km/h 5mph /  8km/h 59.1% 0.00in /  0mm 216 W/m2
14:14 79.8 °F /  26.6 °C 65.1 °F /  18.4 °C 29.67in /  1004.6hPa WSW 0.3mph /  0.5km/h 5mph /  8km/h 60.9% 0.00in /  0mm 1162 W/m2
14:19 80 °F /  26.7 °C 64.3 °F /  17.9 °C 29.67in /  1004.6hPa Calm   5mph /  8km/h 58.9% 0.00in /  0mm 250 W/m2
14:24 79.9 °F /  26.6 °C 63.7 °F /  17.6 °C 29.67in /  1004.6hPa Calm   5mph /  8km/h 57.7% 0.00in /  0mm 1049 W/m2
14:29 79.7 °F /  26.5 °C 64.2 °F /  17.9 °C 29.67in /  1004.6hPa WSW 0.2mph /  0.3km/h 5mph /  8km/h 59.3% 0.00in /  0mm 1016 W/m2
14:34 79.8 °F /  26.6 °C 64.7 °F /  18.2 °C 29.66in /  1004.3hPa West 0.9mph /  1.4km/h 5mph /  8km/h 60.1% 0.00in /  0mm 942 W/m2
14:39 80.1 °F /  26.7 °C 64 °F /  17.8 °C 29.66in /  1004.3hPa West 0.3mph /  0.5km/h 4mph /  6.4km/h 57.9% 0.00in /  0mm 947 W/m2
14:44 80.4 °F /  26.9 °C 64.2 °F /  17.9 °C 29.66in /  1004.3hPa West 0.4mph /  0.6km/h 4mph /  6.4km/h 57.7% 0.00in /  0mm 962 W/m2
14:49 80.8 °F /  27.1 °C 64 °F /  17.8 °C 29.66in /  1004.3hPa WSW 1mph /  1.6km/h 7mph /  11.3km/h 56.6% 0.00in /  0mm 958 W/m2
14:54 80.9 °F /  27.2 °C 64.2 °F /  17.9 °C 29.66in /  1004.3hPa Calm   7mph /  11.3km/h 56.8% 0.00in /  0mm 981 W/m2
14:59 80.8 °F /  27.1 °C 64.9 °F /  18.3 °C 29.66in /  1004.3hPa WSW 0.2mph /  0.3km/h 7mph /  11.3km/h 58.5% 0.00in /  0mm 988 W/m2
15:04 81 °F /  27.2 °C 65 °F /  18.3 °C 29.66in /  1004.3hPa WSW 0.6mph /  1km/h 7mph /  11.3km/h 58.3% 0.00in /  0mm 991 W/m2
15:09 81.2 °F /  27.3 °C 62.9 °F /  17.2 °C 29.66in /  1004.3hPa SW 0.3mph /  0.5km/h 4mph /  6.4km/h 53.7% 0.00in /  0mm 956 W/m2
15:14 81.4 °F /  27.4 °C 62.9 °F /  17.2 °C 29.66in /  1004.3hPa WSW 0.5mph /  0.8km/h 5mph /  8km/h 53.5% 0.00in /  0mm 940 W/m2
15:19 81.5 °F /  27.5 °C 63.4 °F /  17.4 °C 29.66in /  1004.3hPa WNW 1.6mph /  2.6km/h 10mph /  16.1km/h 54.2% 0.00in /  0mm 928 W/m2
15:24 81.7 °F /  27.6 °C 63.8 °F /  17.7 °C 29.65in /  1003.9hPa WSW 2.4mph /  3.9km/h 10mph /  16.1km/h 54.7% 0.00in /  0mm 893 W/m2
15:29 81.9 °F /  27.7 °C 62.8 °F /  17.1 °C 29.66in /  1004.3hPa WSW 1.3mph /  2.1km/h 10mph /  16.1km/h 52.4% 0.00in /  0mm 898 W/m2
15:34 82 °F /  27.8 °C 64 °F /  17.8 °C 29.66in /  1004.3hPa West 1.6mph /  2.6km/h 11mph /  17.7km/h 54.6% 0.00in /  0mm 895 W/m2
15:39 82.3 °F /  27.9 °C 63.5 °F /  17.5 °C 29.66in /  1004.3hPa WNW 3mph /  4.8km/h 11mph /  17.7km/h 52.9% 0.00in /  0mm 881 W/m2
15:44 82.7 °F /  28.2 °C 63.7 °F /  17.6 °C 29.66in /  1004.3hPa West 1mph /  1.6km/h 11mph /  17.7km/h 52.7% 0.00in /  0mm 881 W/m2
15:49 82.9 °F /  28.3 °C 63.3 °F /  17.4 °C 29.66in /  1004.3hPa WNW 1.9mph /  3.1km/h 11mph /  17.7km/h 51.7% 0.00in /  0mm 853 W/m2
15:54 83 °F /  28.3 °C 63.3 °F /  17.4 °C 29.65in /  1003.9hPa WNW 2.6mph /  4.2km/h 11mph /  17.7km/h 51.5% 0.00in /  0mm 833 W/m2
15:59 83.1 °F /  28.4 °C 63 °F /  17.2 °C 29.65in /  1003.9hPa West 2.5mph /  4km/h 11mph /  17.7km/h 50.9% 0.00in /  0mm 812 W/m2
16:00 83.1 °F /  28.4 °C 63.1 °F /  17.3 °C 29.65in /  1003.9hPa Calm   11mph /  17.7km/h 51% 0.00in /  0mm 779 W/m2
16:09 82.8 °F /  28.2 °C 61.4 °F /  16.3 °C 29.65in /  1003.9hPa WSW 1.3mph /  2.1km/h 5mph /  8km/h 48.5% 0.00in /  0mm 752 W/m2
16:14 82.4 °F /  28 °C 61.4 °F /  16.3 °C 29.65in /  1003.9hPa SW 1.9mph /  3.1km/h 6mph /  9.7km/h 49% 0.00in /  0mm 740 W/m2
16:19 82.1 °F /  27.8 °C 60.9 °F /  16.1 °C 29.65in /  1003.9hPa WSW 1mph /  1.6km/h 6mph /  9.7km/h 48.7% 0.00in /  0mm 77 W/m2
16:24 81.8 °F /  27.7 °C 61.8 °F /  16.6 °C 29.65in /  1003.9hPa West 2.7mph /  4.3km/h 9mph /  14.5km/h 50.7% 0.00in /  0mm 91 W/m2
16:29 81.5 °F /  27.5 °C 61.7 °F /  16.5 °C 29.65in /  1003.9hPa West 1.8mph /  2.9km/h 9mph /  14.5km/h 51% 0.00in /  0mm 60 W/m2
16:34 81.4 °F /  27.4 °C 61.5 °F /  16.4 °C 29.65in /  1003.9hPa West 2.6mph /  4.2km/h 10mph /  16.1km/h 50.8% 0.00in /  0mm 72 W/m2
16:39 81.4 °F /  27.4 °C 61.7 °F /  16.5 °C 29.65in /  1003.9hPa WSW 1.7mph /  2.7km/h 10mph /  16.1km/h 51.4% 0.00in /  0mm 120 W/m2
16:44 81.2 °F /  27.3 °C 61.1 °F /  16.2 °C 29.65in /  1003.9hPa West 2.3mph /  3.7km/h 10mph /  16.1km/h 50.5% 0.00in /  0mm 98 W/m2
16:49 80.8 °F /  27.1 °C 61.5 °F /  16.4 °C 29.66in /  1004.3hPa West 3.6mph /  5.8km/h 12mph /  19.3km/h 51.8% 0.00in /  0mm 113 W/m2
16:54 80.4 °F /  26.9 °C 62.2 °F /  16.8 °C 29.66in /  1004.3hPa WNW 7.5mph /  12.1km/h 19mph /  30.6km/h 53.8% 0.00in /  0mm 172 W/m2
16:59 79.4 °F /  26.3 °C 62.1 °F /  16.7 °C 29.66in /  1004.3hPa WNW 5mph /  8km/h 19mph /  30.6km/h 55.5% 0.00in /  0mm 130 W/m2
17:04 78.2 °F /  25.7 °C 62.2 °F /  16.8 °C 29.66in /  1004.3hPa WNW 2.5mph /  4km/h 19mph /  30.6km/h 58.1% 0.00in /  0mm 134 W/m2
17:09 77.2 °F /  25.1 °C 62.3 °F /  16.8 °C 29.66in /  1004.3hPa WNW 6.9mph /  11.1km/h 19mph /  30.6km/h 60% 0.00in /  0mm 172 W/m2
17:14 76.5 °F /  24.7 °C 62.3 °F /  16.8 °C 29.67in /  1004.6hPa WNW 5.7mph /  9.2km/h 19mph /  30.6km/h 61.6% 0.00in /  0mm 158 W/m2
17:19 76.1 °F /  24.5 °C 62.5 °F /  16.9 °C 29.67in /  1004.6hPa WNW 4.1mph /  6.6km/h 19mph /  30.6km/h 62.8% 0.00in /  0mm 100 W/m2
17:24 75.6 °F /  24.2 °C 61.4 °F /  16.3 °C 29.67in /  1004.6hPa WNW 4.6mph /  7.4km/h 19mph /  30.6km/h 61.3% 0.00in /  0mm 121 W/m2
17:29 75 °F /  23.9 °C 61.4 °F /  16.3 °C 29.67in /  1004.6hPa WNW 2.7mph /  4.3km/h 19mph /  30.6km/h 62.7% 0.00in /  0mm 128 W/m2
17:34 74.5 °F /  23.6 °C 61.2 °F /  16.2 °C 29.66in /  1004.3hPa West 3.1mph /  5km/h 19mph /  30.6km/h 63.3% 0.00in /  0mm 98 W/m2
17:39 74 °F /  23.3 °C 61.2 °F /  16.2 °C 29.66in /  1004.3hPa West 1.7mph /  2.7km/h 10mph /  16.1km/h 64.3% 0.00in /  0mm 81 W/m2
17:44 73.7 °F /  23.2 °C 61.3 °F /  16.3 °C 29.66in /  1004.3hPa West 0.9mph /  1.4km/h 10mph /  16.1km/h 65.1% 0.00in /  0mm 121 W/m2
17:49 73.6 °F /  23.1 °C 61.8 °F /  16.6 °C 29.66in /  1004.3hPa WSW 1.5mph /  2.4km/h 10mph /  16.1km/h 66.5% 0.00in /  0mm 141 W/m2
17:54 73.9 °F /  23.3 °C 62.2 °F /  16.8 °C 29.66in /  1004.3hPa WNW 2.1mph /  3.4km/h 10mph /  16.1km/h 66.8% 0.00in /  0mm 105 W/m2
17:59 74.2 °F /  23.4 °C 62 °F /  16.7 °C 29.66in /  1004.3hPa West 3.4mph /  5.5km/h 10mph /  16.1km/h 65.7% 0.00in /  0mm 51 W/m2
18:04 74.5 °F /  23.6 °C 61.9 °F /  16.6 °C 29.66in /  1004.3hPa West 1.8mph /  2.9km/h 10mph /  16.1km/h 64.7% 0.00in /  0mm 39 W/m2
18:09 74.8 °F /  23.8 °C 62.2 °F /  16.8 °C 29.66in /  1004.3hPa West 2mph /  3.2km/h 9mph /  14.5km/h 64.9% 0.00in /  0mm 35 W/m2
18:14 74.8 °F /  23.8 °C 61.6 °F /  16.4 °C 29.65in /  1003.9hPa West 3.1mph /  5km/h 10mph /  16.1km/h 63.5% 0.00in /  0mm 33 W/m2
18:19 74.6 °F /  23.7 °C 61.3 °F /  16.3 °C 29.65in /  1003.9hPa WNW 2.2mph /  3.5km/h 10mph /  16.1km/h 63.3% 0.00in /  0mm 35 W/m2
18:24 74.5 °F /  23.6 °C 62 °F /  16.7 °C 29.65in /  1003.9hPa West 2.6mph /  4.2km/h 10mph /  16.1km/h 64.9% 0.00in /  0mm 35 W/m2
18:29 74.5 °F /  23.6 °C 61.7 °F /  16.5 °C 29.66in /  1004.3hPa West 2.8mph /  4.5km/h 10mph /  16.1km/h 64.3% 0.00in /  0mm 39 W/m2
18:34 74.5 °F /  23.6 °C 61.6 °F /  16.4 °C 29.66in /  1004.3hPa West 2.4mph /  3.9km/h 10mph /  16.1km/h 64.2% 0.00in /  0mm 39 W/m2
18:39 74.6 °F /  23.7 °C 61.4 °F /  16.3 °C 29.66in /  1004.3hPa West 2.9mph /  4.7km/h 7mph /  11.3km/h 63.6% 0.00in /  0mm 30 W/m2
18:44 74.7 °F /  23.7 °C 61.4 °F /  16.3 °C 29.66in /  1004.3hPa WSW 2.7mph /  4.3km/h 9mph /  14.5km/h 63.4% 0.00in /  0mm 30 W/m2
18:49 74.7 °F /  23.7 °C 61.3 °F /  16.3 °C 29.66in /  1004.3hPa West 1.9mph /  3.1km/h 9mph /  14.5km/h 63% 0.00in /  0mm 28 W/m2
18:54 74.7 °F /  23.7 °C 61.4 °F /  16.3 °C 29.66in /  1004.3hPa WNW 1.7mph /  2.7km/h 9mph /  14.5km/h 63.2% 0.00in /  0mm 28 W/m2
18:59 74.8 °F /  23.8 °C 61.4 °F /  16.3 °C 29.66in /  1004.3hPa WSW 1.7mph /  2.7km/h 9mph /  14.5km/h 63% 0.00in /  0mm 26 W/m2
19:04 74.7 °F /  23.7 °C 61 °F /  16.1 °C 29.66in /  1004.3hPa West 2.6mph /  4.2km/h 9mph /  14.5km/h 62.5% 0.00in /  0mm 26 W/m2
19:09 74.6 °F /  23.7 °C 61 °F /  16.1 °C 29.66in /  1004.3hPa West 3.4mph /  5.5km/h 11mph /  17.7km/h 62.5% 0.00in /  0mm 25 W/m2
19:14 74.5 °F /  23.6 °C 61.4 °F /  16.3 °C 29.66in /  1004.3hPa WNW 1mph /  1.6km/h 11mph /  17.7km/h 63.8% 0.00in /  0mm 25 W/m2
19:19 74.4 °F /  23.6 °C 61.8 °F /  16.6 °C 29.66in /  1004.3hPa West 2.1mph /  3.4km/h 11mph /  17.7km/h 64.8% 0.00in /  0mm 23 W/m2
19:24 74.2 °F /  23.4 °C 61.7 °F /  16.5 °C 29.66in /  1004.3hPa West 2.1mph /  3.4km/h 11mph /  17.7km/h 65% 0.00in /  0mm 23 W/m2
19:29 74.1 °F /  23.4 °C 61.6 °F /  16.4 °C 29.66in /  1004.3hPa WSW 0.5mph /  0.8km/h 11mph /  17.7km/h 65% 0.00in /  0mm 21 W/m2
19:34 74 °F /  23.3 °C 62 °F /  16.7 °C 29.66in /  1004.3hPa WSW 0.2mph /  0.3km/h 11mph /  17.7km/h 66% 0.00in /  0mm 19 W/m2
19:39 73.9 °F /  23.3 °C 61.7 °F /  16.5 °C 29.67in /  1004.6hPa West 1.6mph /  2.6km/h 7mph /  11.3km/h 65.8% 0.00in /  0mm 19 W/m2
19:44 73.7 °F /  23.2 °C 61.8 °F /  16.6 °C 29.67in /  1004.6hPa WSW 0.3mph /  0.5km/h 7mph /  11.3km/h 66.3% 0.00in /  0mm 18 W/m2
19:49 73.5 °F /  23.1 °C 61.6 °F /  16.4 °C 29.67in /  1004.6hPa West 1.7mph /  2.7km/h 7mph /  11.3km/h 66.2% 0.00in /  0mm 16 W/m2
19:54 73.3 °F /  22.9 °C 61.8 °F /  16.6 °C 29.67in /  1004.6hPa West 0.5mph /  0.8km/h 7mph /  11.3km/h 67.1% 0.00in /  0mm 14 W/m2
19:59 73.1 °F /  22.8 °C 62 °F /  16.7 °C 29.67in /  1004.6hPa West 0.5mph /  0.8km/h 7mph /  11.3km/h 68% 0.00in /  0mm 12 W/m2
20:09 72.6 °F /  22.6 °C 61.9 °F /  16.6 °C 29.68in /  1005hPa WSW 0.9mph /  1.4km/h 5mph /  8km/h 69% 0.00in /  0mm 7 W/m2
20:14 72.5 °F /  22.5 °C 61.8 °F /  16.6 °C 29.68in /  1005hPa Calm   5mph /  8km/h 69.2% 0.00in /  0mm 0 W/m2
20:19 72.3 °F /  22.4 °C 62 °F /  16.7 °C 29.68in /  1005hPa Calm   5mph /  8km/h 70% 0.00in /  0mm 0 W/m2
20:24 72.2 °F /  22.3 °C 61.8 °F /  16.6 °C 29.68in /  1005hPa Calm   5mph /  8km/h 70% 0.00in /  0mm 0 W/m2
20:29 72 °F /  22.2 °C 61.9 °F /  16.6 °C 29.68in /  1005hPa Calm   5mph /  8km/h 70.5% 0.00in /  0mm 0 W/m2
20:34 71.8 °F /  22.1 °C 61.9 °F /  16.6 °C 29.68in /  1005hPa Calm   5mph /  8km/h 71% 0.00in /  0mm 0 W/m2
20:39 71.6 °F /  22 °C 61.8 °F /  16.6 °C 29.68in /  1005hPa Calm     71.2% 0.00in /  0mm 0 W/m2
20:44 71.4 °F /  21.9 °C 61.9 °F /  16.6 °C 29.68in /  1005hPa Calm     72% 0.00in /  0mm 0 W/m2
20:49 71.2 °F /  21.8 °C 61.8 °F /  16.6 °C 29.69in /  1005.3hPa Calm     72% 0.00in /  0mm 0 W/m2
20:54 71 °F /  21.7 °C 61.9 °F /  16.6 °C 29.69in /  1005.3hPa Calm     73% 0.00in /  0mm 0 W/m2
20:59 70.8 °F /  21.6 °C 62 °F /  16.7 °C 29.70in /  1005.6hPa WSW 0.1mph /  0.2km/h 2mph /  3.2km/h 73.8% 0.00in /  0mm 0 W/m2
21:04 70.5 °F /  21.4 °C 61.8 °F /  16.6 °C 29.70in /  1005.6hPa WSW 0.1mph /  0.2km/h 3mph /  4.8km/h 74% 0.00in /  0mm 0 W/m2
21:09 70.3 °F /  21.3 °C 61.8 °F /  16.6 °C 29.70in /  1005.6hPa WSW 0.2mph /  0.3km/h 3mph /  4.8km/h 74.5% 0.00in /  0mm 0 W/m2
21:14 70.1 °F /  21.2 °C 61.8 °F /  16.6 °C 29.70in /  1005.6hPa West 0.9mph /  1.4km/h 5mph /  8km/h 75.1% 0.00in /  0mm 0 W/m2
21:19 69.9 °F /  21.1 °C 62 °F /  16.7 °C 29.70in /  1005.6hPa West 0.2mph /  0.3km/h 5mph /  8km/h 76.1% 0.00in /  0mm 0 W/m2
21:24 69.7 °F /  20.9 °C 61.9 °F /  16.6 °C 29.70in /  1005.6hPa West 0.2mph /  0.3km/h 5mph /  8km/h 76.1% 0.00in /  0mm 0 W/m2
21:29 69.6 °F /  20.9 °C 61.7 °F /  16.5 °C 29.71in /  1006hPa West 0.1mph /  0.2km/h 5mph /  8km/h 76% 0.00in /  0mm 0 W/m2
21:34 69.5 °F /  20.8 °C 61.6 °F /  16.4 °C 29.71in /  1006hPa West 0.1mph /  0.2km/h 5mph /  8km/h 76.1% 0.00in /  0mm 0 W/m2
21:39 69.3 °F /  20.7 °C 61.5 °F /  16.4 °C 29.71in /  1006hPa WNW 1.5mph /  2.4km/h 7mph /  11.3km/h 76.3% 0.00in /  0mm 0 W/m2
21:44 69.1 °F /  20.6 °C 61.3 °F /  16.3 °C 29.71in /  1006hPa WNW 0.2mph /  0.3km/h 7mph /  11.3km/h 76% 0.00in /  0mm 0 W/m2
21:49 69 °F /  20.6 °C 61.1 °F /  16.2 °C 29.71in /  1006hPa WNW 0.2mph /  0.3km/h 7mph /  11.3km/h 76% 0.00in /  0mm 0 W/m2
21:54 68.8 °F /  20.4 °C 60.7 °F /  15.9 °C 29.71in /  1006hPa WNW 0.1mph /  0.2km/h 7mph /  11.3km/h 75.2% 0.00in /  0mm 0 W/m2
21:59 68.7 °F /  20.4 °C 60.5 °F /  15.8 °C 29.70in /  1005.6hPa Calm   7mph /  11.3km/h 75% 0.00in /  0mm 0 W/m2
22:04 68.6 °F /  20.3 °C 60.7 °F /  15.9 °C 29.71in /  1006hPa WNW 0.3mph /  0.5km/h 7mph /  11.3km/h 76% 0.00in /  0mm 0 W/m2
22:09 68.4 °F /  20.2 °C 60.6 °F /  15.9 °C 29.71in /  1006hPa West 1.3mph /  2.1km/h 7mph /  11.3km/h 76% 0.00in /  0mm 0 W/m2
22:14 68.4 °F /  20.2 °C 60.5 °F /  15.8 °C 29.71in /  1006hPa West 0.4mph /  0.6km/h 7mph /  11.3km/h 76% 0.00in /  0mm 0 W/m2
22:19 68.3 °F /  20.2 °C 60.6 °F /  15.9 °C 29.71in /  1006hPa West 0.7mph /  1.1km/h 7mph /  11.3km/h 76.3% 0.00in /  0mm 0 W/m2
22:24 68.2 °F /  20.1 °C 60.4 °F /  15.8 °C 29.71in /  1006hPa West 0.2mph /  0.3km/h 7mph /  11.3km/h 76.1% 0.00in /  0mm 0 W/m2
22:29 68.1 °F /  20.1 °C 60.3 °F /  15.7 °C 29.71in /  1006hPa WNW 1.8mph /  2.9km/h 8mph /  12.9km/h 76% 0.00in /  0mm 0 W/m2
22:34 68 °F /  20 °C 60.1 °F /  15.6 °C 29.71in /  1006hPa WNW 2.5mph /  4km/h 8mph /  12.9km/h 76% 0.00in /  0mm 0 W/m2
22:39 67.8 °F /  19.9 °C 60 °F /  15.6 °C 29.71in /  1006hPa WNW 0.4mph /  0.6km/h 7mph /  11.3km/h 76% 0.00in /  0mm 0 W/m2
22:44 67.7 °F /  19.8 °C 60.1 °F /  15.6 °C 29.71in /  1006hPa WNW 0.3mph /  0.5km/h 7mph /  11.3km/h 76.9% 0.00in /  0mm 0 W/m2
22:49 67.5 °F /  19.7 °C 60.1 °F /  15.6 °C 29.71in /  1006hPa Calm   7mph /  11.3km/h 77% 0.00in /  0mm 0 W/m2
22:54 67.4 °F /  19.7 °C 59.9 °F /  15.5 °C 29.72in /  1006.3hPa NNW 0.1mph /  0.2km/h 7mph /  11.3km/h 77% 0.00in /  0mm 0 W/m2
22:59 67.2 °F /  19.6 °C 59.8 °F /  15.4 °C 29.72in /  1006.3hPa Calm   7mph /  11.3km/h 77% 0.00in /  0mm 0 W/m2
23:04 67.1 °F /  19.5 °C 59.8 °F /  15.4 °C 29.72in /  1006.3hPa NNW 0.1mph /  0.2km/h 7mph /  11.3km/h 77.4% 0.00in /  0mm 0 W/m2
23:09 66.9 °F /  19.4 °C 59.8 °F /  15.4 °C 29.72in /  1006.3hPa NNW 0.1mph /  0.2km/h 3mph /  4.8km/h 78% 0.00in /  0mm 0 W/m2
23:14 66.7 °F /  19.3 °C 59.7 °F /  15.4 °C 29.72in /  1006.3hPa Calm   3mph /  4.8km/h 78% 0.00in /  0mm 0 W/m2
23:19 66.6 °F /  19.2 °C 59.6 °F /  15.3 °C 29.72in /  1006.3hPa Calm   3mph /  4.8km/h 78.2% 0.00in /  0mm 0 W/m2
23:24 66.4 °F /  19.1 °C 59.7 °F /  15.4 °C 29.72in /  1006.3hPa WNW 0.3mph /  0.5km/h 5mph /  8km/h 79% 0.00in /  0mm 0 W/m2
23:29 66.3 °F /  19.1 °C 59.6 °F /  15.3 °C 29.72in /  1006.3hPa WNW 0.2mph /  0.3km/h 5mph /  8km/h 79% 0.00in /  0mm 0 W/m2
23:34 66.1 °F /  18.9 °C 59.5 °F /  15.3 °C 29.72in /  1006.3hPa WNW 0.2mph /  0.3km/h 5mph /  8km/h 79.2% 0.00in /  0mm 0 W/m2
23:39 65.9 °F /  18.8 °C 59.5 °F /  15.3 °C 29.72in /  1006.3hPa WNW 0.4mph /  0.6km/h 5mph /  8km/h 79.7% 0.00in /  0mm 0 W/m2
23:44 65.8 °F /  18.8 °C 59.4 °F /  15.2 °C 29.71in /  1006hPa Calm   5mph /  8km/h 80% 0.00in /  0mm 0 W/m2
23:49 65.6 °F /  18.7 °C 59.2 °F /  15.1 °C 29.71in /  1006hPa Calm   5mph /  8km/h 80% 0.00in /  0mm 0 W/m2
23:54 65.4 °F /  18.6 °C 59.2 °F /  15.1 °C 29.71in /  1006hPa Calm   5mph /  8km/h 80.5% 0.00in /  0mm 0 W/m2
23:59 65.2 °F /  18.4 °C 59.2 °F /  15.1 °C 29.71in /  1006hPa Calm   5mph /  8km/h 81% 0.00in /  0mm 0 W/m2
Hartford County Weather
Compliments of Weather Underground - 2 mb